sensor_id;sensor_type;location;lat;lon;timestamp;P1;durP1;ratioP1;P2;durP2;ratioP2
63050;SDS011;49136;47.416;19.402;2022-08-11T00:02:22;4.60;;;2.40;;
63050;SDS011;49136;47.416;19.402;2022-08-11T00:04:50;5.60;;;1.83;;
63050;SDS011;49136;47.416;19.402;2022-08-11T00:07:18;5.75;;;1.65;;
63050;SDS011;49136;47.416;19.402;2022-08-11T00:09:44;3.63;;;1.92;;
63050;SDS011;49136;47.416;19.402;2022-08-11T00:12:14;6.65;;;2.13;;
63050;SDS011;49136;47.416;19.402;2022-08-11T00:14:42;3.40;;;1.80;;
63050;SDS011;49136;47.416;19.402;2022-08-11T00:17:10;5.82;;;1.92;;
63050;SDS011;49136;47.416;19.402;2022-08-11T00:19:39;2.67;;;1.80;;
63050;SDS011;49136;47.416;19.402;2022-08-11T00:22:07;3.33;;;2.00;;
63050;SDS011;49136;47.416;19.402;2022-08-11T00:24:38;4.45;;;1.98;;
63050;SDS011;49136;47.416;19.402;2022-08-11T00:27:05;2.50;;;1.73;;
63050;SDS011;49136;47.416;19.402;2022-08-11T00:29:32;3.08;;;1.85;;
63050;SDS011;49136;47.416;19.402;2022-08-11T00:31:59;2.80;;;1.50;;
63050;SDS011;49136;47.416;19.402;2022-08-11T00:34:27;4.97;;;1.92;;
63050;SDS011;49136;47.416;19.402;2022-08-11T00:36:55;3.30;;;1.95;;
63050;SDS011;49136;47.416;19.402;2022-08-11T00:39:25;2.90;;;1.80;;
63050;SDS011;49136;47.416;19.402;2022-08-11T00:55:38;13.25;;;1.80;;
63050;SDS011;49136;47.416;19.402;2022-08-11T01:12:20;3.22;;;1.85;;
63050;SDS011;49136;47.416;19.402;2022-08-11T01:44:08;3.00;;;1.88;;
63050;SDS011;49136;47.416;19.402;2022-08-11T01:55:38;5.72;;;1.90;;
63050;SDS011;49136;47.416;19.402;2022-08-11T01:58:14;2.90;;;1.70;;
63050;SDS011;49136;47.416;19.402;2022-08-11T02:00:47;3.10;;;1.52;;
63050;SDS011;49136;47.416;19.402;2022-08-11T02:03:34;2.95;;;1.40;;
63050;SDS011;49136;47.416;19.402;2022-08-11T02:12:15;3.15;;;2.10;;
63050;SDS011;49136;47.416;19.402;2022-08-11T02:14:56;3.33;;;1.70;;
63050;SDS011;49136;47.416;19.402;2022-08-11T02:20:34;7.40;;;1.85;;
63050;SDS011;49136;47.416;19.402;2022-08-11T02:26:10;3.58;;;1.77;;
63050;SDS011;49136;47.416;19.402;2022-08-11T02:28:50;3.15;;;1.95;;
63050;SDS011;49136;47.416;19.402;2022-08-11T02:31:32;4.60;;;1.70;;
63050;SDS011;49136;47.416;19.402;2022-08-11T02:34:31;3.20;;;1.67;;
63050;SDS011;49136;47.416;19.402;2022-08-11T02:39:42;4.35;;;2.45;;
63050;SDS011;49136;47.416;19.402;2022-08-11T02:42:22;4.13;;;2.55;;
63050;SDS011;49136;47.416;19.402;2022-08-11T02:53:45;3.42;;;1.98;;
63050;SDS011;49136;47.416;19.402;2022-08-11T02:56:36;3.53;;;1.63;;
63050;SDS011;49136;47.416;19.402;2022-08-11T03:20:07;5.15;;;2.03;;
63050;SDS011;49136;47.416;19.402;2022-08-11T03:22:50;3.35;;;2.08;;
63050;SDS011;49136;47.416;19.402;2022-08-11T03:34:17;3.45;;;1.70;;
63050;SDS011;49136;47.416;19.402;2022-08-11T03:37:02;2.95;;;1.77;;
63050;SDS011;49136;47.416;19.402;2022-08-11T03:45:56;15.80;;;2.25;;
63050;SDS011;49136;47.416;19.402;2022-08-11T03:51:28;5.05;;;1.88;;
63050;SDS011;49136;47.416;19.402;2022-08-11T04:17:05;16.83;;;2.25;;
63050;SDS011;49136;47.416;19.402;2022-08-11T04:20:14;10.70;;;2.80;;
63050;SDS011;49136;47.416;19.402;2022-08-11T04:23:09;5.75;;;2.30;;
63050;SDS011;49136;47.416;19.402;2022-08-11T04:43:24;5.57;;;2.50;;
63050;SDS011;49136;47.416;19.402;2022-08-11T04:52:25;5.30;;;2.42;;
63050;SDS011;49136;47.416;19.402;2022-08-11T05:04:15;25.30;;;3.47;;
63050;SDS011;49136;47.416;19.402;2022-08-11T05:07:19;15.23;;;2.85;;
63050;SDS011;49136;47.416;19.402;2022-08-11T05:12:35;5.82;;;2.15;;
63050;SDS011;49136;47.416;19.402;2022-08-11T05:15:10;5.38;;;1.92;;
63050;SDS011;49136;47.416;19.402;2022-08-11T05:17:57;5.75;;;1.80;;
63050;SDS011;49136;47.416;19.402;2022-08-11T05:21:05;7.28;;;2.25;;
63050;SDS011;49136;47.416;19.402;2022-08-11T05:24:02;4.00;;;2.03;;
63050;SDS011;49136;47.416;19.402;2022-08-11T05:26:50;5.03;;;1.83;;
63050;SDS011;49136;47.416;19.402;2022-08-11T05:29:41;8.10;;;2.03;;
63050;SDS011;49136;47.416;19.402;2022-08-11T05:32:36;4.70;;;1.80;;
63050;SDS011;49136;47.416;19.402;2022-08-11T05:35:27;3.03;;;1.33;;
63050;SDS011;49136;47.416;19.402;2022-08-11T05:37:56;5.53;;;1.83;;
63050;SDS011;49136;47.416;19.402;2022-08-11T05:40:48;5.93;;;1.98;;
63050;SDS011;49136;47.416;19.402;2022-08-11T05:43:34;7.15;;;2.20;;
63050;SDS011;49136;47.416;19.402;2022-08-11T05:46:26;2.03;;;1.40;;
63050;SDS011;49136;47.416;19.402;2022-08-11T05:49:11;4.22;;;1.60;;
63050;SDS011;49136;47.416;19.402;2022-08-11T05:51:56;7.25;;;1.95;;
63050;SDS011;49136;47.416;19.402;2022-08-11T05:54:42;3.72;;;1.90;;
63050;SDS011;49136;47.416;19.402;2022-08-11T05:57:31;2.22;;;1.38;;
63050;SDS011;49136;47.416;19.402;2022-08-11T05:59:59;6.25;;;1.50;;
63050;SDS011;49136;47.416;19.402;2022-08-11T06:02:26;2.80;;;1.70;;
63050;SDS011;49136;47.416;19.402;2022-08-11T06:04:53;1.92;;;1.35;;
63050;SDS011;49136;47.416;19.402;2022-08-11T06:07:25;2.28;;;1.45;;
63050;SDS011;49136;47.416;19.402;2022-08-11T06:09:53;3.53;;;1.15;;
63050;SDS011;49136;47.416;19.402;2022-08-11T06:14:53;4.50;;;1.50;;
63050;SDS011;49136;47.416;19.402;2022-08-11T06:17:24;3.67;;;1.33;;
63050;SDS011;49136;47.416;19.402;2022-08-11T06:19:51;2.15;;;1.40;;
63050;SDS011;49136;47.416;19.402;2022-08-11T06:22:24;2.85;;;1.38;;
63050;SDS011;49136;47.416;19.402;2022-08-11T06:24:52;3.35;;;2.03;;
63050;SDS011;49136;47.416;19.402;2022-08-11T06:27:21;10.95;;;1.65;;
63050;SDS011;49136;47.416;19.402;2022-08-11T06:29:49;3.45;;;1.50;;
63050;SDS011;49136;47.416;19.402;2022-08-11T06:32:16;3.10;;;1.58;;
63050;SDS011;49136;47.416;19.402;2022-08-11T06:43:17;4.63;;;1.48;;
63050;SDS011;49136;47.416;19.402;2022-08-11T06:45:50;8.43;;;1.73;;
63050;SDS011;49136;47.416;19.402;2022-08-11T06:48:22;2.35;;;1.27;;
63050;SDS011;49136;47.416;19.402;2022-08-11T06:50:55;2.42;;;1.20;;
63050;SDS011;49136;47.416;19.402;2022-08-11T06:53:41;3.20;;;1.70;;
63050;SDS011;49136;47.416;19.402;2022-08-11T06:56:09;4.70;;;1.70;;
63050;SDS011;49136;47.416;19.402;2022-08-11T06:58:55;3.30;;;1.55;;
63050;SDS011;49136;47.416;19.402;2022-08-11T07:04:19;4.32;;;1.85;;
63050;SDS011;49136;47.416;19.402;2022-08-11T07:13:14;6.32;;;1.90;;
63050;SDS011;49136;47.416;19.402;2022-08-11T07:16:01;3.53;;;1.70;;
63050;SDS011;49136;47.416;19.402;2022-08-11T07:18:28;5.30;;;1.80;;
63050;SDS011;49136;47.416;19.402;2022-08-11T07:21:34;4.65;;;2.05;;
63050;SDS011;49136;47.416;19.402;2022-08-11T07:24:24;2.90;;;1.48;;
63050;SDS011;49136;47.416;19.402;2022-08-11T07:27:12;2.47;;;1.65;;
63050;SDS011;49136;47.416;19.402;2022-08-11T07:29:59;3.10;;;1.45;;
63050;SDS011;49136;47.416;19.402;2022-08-11T07:32:28;10.95;;;2.05;;
63050;SDS011;49136;47.416;19.402;2022-08-11T07:34:58;3.20;;;1.75;;
63050;SDS011;49136;47.416;19.402;2022-08-11T07:37:29;4.60;;;1.63;;
63050;SDS011;49136;47.416;19.402;2022-08-11T07:39:57;2.70;;;1.98;;
63050;SDS011;49136;47.416;19.402;2022-08-11T07:42:26;9.32;;;1.98;;
63050;SDS011;49136;47.416;19.402;2022-08-11T07:47:39;21.42;;;1.50;;
63050;SDS011;49136;47.416;19.402;2022-08-11T07:50:25;2.58;;;1.48;;
63050;SDS011;49136;47.416;19.402;2022-08-11T07:53:09;4.68;;;1.25;;
63050;SDS011;49136;47.416;19.402;2022-08-11T07:55:37;3.70;;;1.45;;
63050;SDS011;49136;47.416;19.402;2022-08-11T07:58:02;10.50;;;1.30;;
63050;SDS011;49136;47.416;19.402;2022-08-11T08:00:51;2.03;;;1.23;;
63050;SDS011;49136;47.416;19.402;2022-08-11T08:03:37;1.77;;;1.40;;
63050;SDS011;49136;47.416;19.402;2022-08-11T08:06:22;2.97;;;1.30;;
63050;SDS011;49136;47.416;19.402;2022-08-11T08:09:07;1.52;;;1.10;;
63050;SDS011;49136;47.416;19.402;2022-08-11T08:11:52;3.28;;;1.05;;
63050;SDS011;49136;47.416;19.402;2022-08-11T08:14:36;5.60;;;1.35;;
63050;SDS011;49136;47.416;19.402;2022-08-11T08:17:20;2.40;;;1.20;;
63050;SDS011;49136;47.416;19.402;2022-08-11T08:20:07;2.75;;;1.40;;
63050;SDS011;49136;47.416;19.402;2022-08-11T08:22:35;4.55;;;1.50;;
63050;SDS011;49136;47.416;19.402;2022-08-11T08:25:01;3.97;;;1.20;;
63050;SDS011;49136;47.416;19.402;2022-08-11T08:27:27;3.72;;;1.40;;
63050;SDS011;49136;47.416;19.402;2022-08-11T08:29:53;2.15;;;1.20;;
63050;SDS011;49136;47.416;19.402;2022-08-11T08:32:40;2.28;;;1.23;;
63050;SDS011;49136;47.416;19.402;2022-08-11T08:35:09;1.20;;;1.00;;
63050;SDS011;49136;47.416;19.402;2022-08-11T08:37:36;2.40;;;0.95;;
63050;SDS011;49136;47.416;19.402;2022-08-11T08:40:01;2.17;;;1.10;;
63050;SDS011;49136;47.416;19.402;2022-08-11T08:42:29;3.25;;;1.10;;
63050;SDS011;49136;47.416;19.402;2022-08-11T08:45:06;2.65;;;1.25;;
63050;SDS011;49136;47.416;19.402;2022-08-11T08:47:35;1.70;;;1.00;;
63050;SDS011;49136;47.416;19.402;2022-08-11T08:50:05;3.22;;;1.00;;
63050;SDS011;49136;47.416;19.402;2022-08-11T08:52:36;4.75;;;0.88;;
63050;SDS011;49136;47.416;19.402;2022-08-11T08:55:06;1.45;;;0.90;;
63050;SDS011;49136;47.416;19.402;2022-08-11T08:57:34;0.98;;;0.70;;
63050;SDS011;49136;47.416;19.402;2022-08-11T09:00:02;2.20;;;0.60;;
63050;SDS011;49136;47.416;19.402;2022-08-11T09:02:29;2.25;;;1.05;;
63050;SDS011;49136;47.416;19.402;2022-08-11T09:04:55;3.83;;;1.00;;
63050;SDS011;49136;47.416;19.402;2022-08-11T09:07:22;4.22;;;0.93;;
63050;SDS011;49136;47.416;19.402;2022-08-11T09:09:52;1.55;;;0.93;;
63050;SDS011;49136;47.416;19.402;2022-08-11T09:12:20;0.70;;;0.60;;
63050;SDS011;49136;47.416;19.402;2022-08-11T09:14:50;2.28;;;0.90;;
63050;SDS011;49136;47.416;19.402;2022-08-11T09:17:32;5.60;;;0.75;;
63050;SDS011;49136;47.416;19.402;2022-08-11T09:22:36;2.35;;;0.93;;
63050;SDS011;49136;47.416;19.402;2022-08-11T09:25:25;1.65;;;1.20;;
63050;SDS011;49136;47.416;19.402;2022-08-11T09:28:11;1.73;;;1.00;;
63050;SDS011;49136;47.416;19.402;2022-08-11T09:30:42;3.75;;;0.80;;
63050;SDS011;49136;47.416;19.402;2022-08-11T09:35:37;1.13;;;0.68;;
63050;SDS011;49136;47.416;19.402;2022-08-11T09:38:06;3.97;;;0.95;;
63050;SDS011;49136;47.416;19.402;2022-08-11T09:40:54;2.75;;;1.00;;
63050;SDS011;49136;47.416;19.402;2022-08-11T09:43:20;1.65;;;1.08;;
63050;SDS011;49136;47.416;19.402;2022-08-11T09:46:05;3.63;;;1.10;;
63050;SDS011;49136;47.416;19.402;2022-08-11T09:48:50;0.98;;;0.70;;
63050;SDS011;49136;47.416;19.402;2022-08-11T09:51:19;1.33;;;0.85;;
63050;SDS011;49136;47.416;19.402;2022-08-11T09:53:46;2.13;;;1.10;;
63050;SDS011;49136;47.416;19.402;2022-08-11T09:56:17;5.18;;;0.95;;
63050;SDS011;49136;47.416;19.402;2022-08-11T09:59:04;1.35;;;0.77;;
63050;SDS011;49136;47.416;19.402;2022-08-11T10:01:31;1.00;;;0.70;;
63050;SDS011;49136;47.416;19.402;2022-08-11T10:04:09;3.40;;;1.00;;
63050;SDS011;49136;47.416;19.402;2022-08-11T10:06:39;1.05;;;0.70;;
63050;SDS011;49136;47.416;19.402;2022-08-11T10:09:26;1.63;;;0.80;;
63050;SDS011;49136;47.416;19.402;2022-08-11T10:11:57;1.45;;;0.90;;
63050;SDS011;49136;47.416;19.402;2022-08-11T10:14:27;2.20;;;1.23;;
63050;SDS011;49136;47.416;19.402;2022-08-11T10:17:14;1.35;;;0.90;;
63050;SDS011;49136;47.416;19.402;2022-08-11T10:19:41;1.33;;;0.80;;
63050;SDS011;49136;47.416;19.402;2022-08-11T10:22:09;1.92;;;0.90;;
63050;SDS011;49136;47.416;19.402;2022-08-11T10:24:53;2.42;;;1.10;;
63050;SDS011;49136;47.416;19.402;2022-08-11T10:27:41;2.20;;;0.73;;
63050;SDS011;49136;47.416;19.402;2022-08-11T10:30:08;2.08;;;1.25;;
63050;SDS011;49136;47.416;19.402;2022-08-11T10:32:53;1.10;;;0.85;;
63050;SDS011;49136;47.416;19.402;2022-08-11T10:35:40;1.10;;;0.70;;
63050;SDS011;49136;47.416;19.402;2022-08-11T10:38:08;1.77;;;0.90;;
63050;SDS011;49136;47.416;19.402;2022-08-11T10:40:34;2.00;;;0.93;;
63050;SDS011;49136;47.416;19.402;2022-08-11T10:43:01;2.22;;;1.35;;
63050;SDS011;49136;47.416;19.402;2022-08-11T10:45:34;4.82;;;1.02;;
63050;SDS011;49136;47.416;19.402;2022-08-11T10:48:21;1.33;;;1.08;;
63050;SDS011;49136;47.416;19.402;2022-08-11T10:50:50;0.80;;;0.80;;
63050;SDS011;49136;47.416;19.402;2022-08-11T10:53:34;0.70;;;0.70;;
63050;SDS011;49136;47.416;19.402;2022-08-11T10:56:21;4.15;;;0.90;;
63050;SDS011;49136;47.416;19.402;2022-08-11T10:59:06;1.15;;;0.80;;
63050;SDS011;49136;47.416;19.402;2022-08-11T11:01:39;2.95;;;0.85;;
63050;SDS011;49136;47.416;19.402;2022-08-11T11:04:17;6.22;;;1.00;;
63050;SDS011;49136;47.416;19.402;2022-08-11T11:06:49;1.30;;;1.20;;
63050;SDS011;49136;47.416;19.402;2022-08-11T11:09:29;2.35;;;0.90;;
63050;SDS011;49136;47.416;19.402;2022-08-11T11:12:07;19.77;;;1.55;;
63050;SDS011;49136;47.416;19.402;2022-08-11T11:14:53;4.05;;;1.10;;
63050;SDS011;49136;47.416;19.402;2022-08-11T11:17:42;54.47;;;3.88;;
63050;SDS011;49136;47.416;19.402;2022-08-11T11:20:24;5.93;;;1.00;;
63050;SDS011;49136;47.416;19.402;2022-08-11T11:22:55;1.70;;;0.93;;
63050;SDS011;49136;47.416;19.402;2022-08-11T11:31:07;3.53;;;1.00;;
63050;SDS011;49136;47.416;19.402;2022-08-11T11:39:24;1.23;;;0.80;;
63050;SDS011;49136;47.416;19.402;2022-08-11T11:41:53;0.65;;;0.60;;
63050;SDS011;49136;47.416;19.402;2022-08-11T11:44:21;1.20;;;0.93;;
63050;SDS011;49136;47.416;19.402;2022-08-11T11:46:47;3.17;;;1.00;;
63050;SDS011;49136;47.416;19.402;2022-08-11T11:49:15;2.45;;;1.10;;
63050;SDS011;49136;47.416;19.402;2022-08-11T11:51:42;1.35;;;0.90;;
63050;SDS011;49136;47.416;19.402;2022-08-11T11:54:10;2.00;;;0.98;;
63050;SDS011;49136;47.416;19.402;2022-08-11T11:56:38;2.35;;;1.08;;
63050;SDS011;49136;47.416;19.402;2022-08-11T11:59:06;1.20;;;0.90;;
63050;SDS011;49136;47.416;19.402;2022-08-11T12:01:51;2.25;;;0.80;;
63050;SDS011;49136;47.416;19.402;2022-08-11T12:04:18;4.32;;;1.20;;
63050;SDS011;49136;47.416;19.402;2022-08-11T12:06:44;2.30;;;1.10;;
63050;SDS011;49136;47.416;19.402;2022-08-11T12:09:11;1.85;;;1.02;;
63050;SDS011;49136;47.416;19.402;2022-08-11T12:11:39;6.75;;;1.95;;
63050;SDS011;49136;47.416;19.402;2022-08-11T12:14:24;2.55;;;0.90;;
63050;SDS011;49136;47.416;19.402;2022-08-11T12:16:52;1.48;;;1.00;;
63050;SDS011;49136;47.416;19.402;2022-08-11T12:19:24;2.15;;;1.00;;
63050;SDS011;49136;47.416;19.402;2022-08-11T12:21:53;1.05;;;0.90;;
63050;SDS011;49136;47.416;19.402;2022-08-11T12:24:39;5.55;;;2.28;;
63050;SDS011;49136;47.416;19.402;2022-08-11T12:27:24;1.77;;;0.88;;
63050;SDS011;49136;47.416;19.402;2022-08-11T12:29:55;2.95;;;1.15;;
63050;SDS011;49136;47.416;19.402;2022-08-11T12:32:30;3.10;;;0.75;;
63050;SDS011;49136;47.416;19.402;2022-08-11T12:34:58;1.00;;;0.90;;
63050;SDS011;49136;47.416;19.402;2022-08-11T12:37:34;4.18;;;0.80;;
63050;SDS011;49136;47.416;19.402;2022-08-11T12:40:04;1.25;;;0.80;;
63050;SDS011;49136;47.416;19.402;2022-08-11T12:42:52;6.35;;;1.15;;
63050;SDS011;49136;47.416;19.402;2022-08-11T12:45:37;2.08;;;0.82;;
63050;SDS011;49136;47.416;19.402;2022-08-11T12:48:10;1.80;;;0.90;;
63050;SDS011;49136;47.416;19.402;2022-08-11T12:51:02;1.77;;;0.90;;
63050;SDS011;49136;47.416;19.402;2022-08-11T12:54:00;6.72;;;0.95;;
63050;SDS011;49136;47.416;19.402;2022-08-11T12:56:36;2.95;;;0.93;;
63050;SDS011;49136;47.416;19.402;2022-08-11T12:59:22;1.65;;;0.93;;
63050;SDS011;49136;47.416;19.402;2022-08-11T13:02:08;1.65;;;1.10;;
63050;SDS011;49136;47.416;19.402;2022-08-11T13:04:55;1.20;;;0.80;;
63050;SDS011;49136;47.416;19.402;2022-08-11T13:07:27;2.65;;;1.10;;
63050;SDS011;49136;47.416;19.402;2022-08-11T13:09:56;1.88;;;0.80;;
63050;SDS011;49136;47.416;19.402;2022-08-11T13:12:23;2.05;;;1.08;;
63050;SDS011;49136;47.416;19.402;2022-08-11T13:15:09;2.10;;;0.85;;
63050;SDS011;49136;47.416;19.402;2022-08-11T13:17:37;1.42;;;0.98;;
63050;SDS011;49136;47.416;19.402;2022-08-11T13:20:04;1.38;;;0.85;;
63050;SDS011;49136;47.416;19.402;2022-08-11T13:22:32;5.55;;;0.98;;
63050;SDS011;49136;47.416;19.402;2022-08-11T13:24:58;1.52;;;1.10;;
63050;SDS011;49136;47.416;19.402;2022-08-11T13:27:24;3.10;;;0.88;;
63050;SDS011;49136;47.416;19.402;2022-08-11T13:29:50;1.88;;;0.80;;
63050;SDS011;49136;47.416;19.402;2022-08-11T13:32:37;3.22;;;0.95;;
63050;SDS011;49136;47.416;19.402;2022-08-11T13:35:05;2.03;;;0.70;;
63050;SDS011;49136;47.416;19.402;2022-08-11T13:37:32;1.42;;;0.90;;
63050;SDS011;49136;47.416;19.402;2022-08-11T13:39:59;3.58;;;1.00;;
63050;SDS011;49136;47.416;19.402;2022-08-11T13:42:26;1.20;;;0.80;;
63050;SDS011;49136;47.416;19.402;2022-08-11T13:44:52;1.23;;;0.90;;
63050;SDS011;49136;47.416;19.402;2022-08-11T13:47:18;2.78;;;0.82;;
63050;SDS011;49136;47.416;19.402;2022-08-11T13:49:47;0.88;;;0.82;;
63050;SDS011;49136;47.416;19.402;2022-08-11T13:52:15;1.33;;;0.90;;
63050;SDS011;49136;47.416;19.402;2022-08-11T13:54:42;1.70;;;0.82;;
63050;SDS011;49136;47.416;19.402;2022-08-11T13:57:10;6.65;;;1.00;;
63050;SDS011;49136;47.416;19.402;2022-08-11T13:59:38;1.52;;;1.00;;
63050;SDS011;49136;47.416;19.402;2022-08-11T14:02:06;4.55;;;0.93;;
63050;SDS011;49136;47.416;19.402;2022-08-11T14:04:54;1.50;;;1.20;;
63050;SDS011;49136;47.416;19.402;2022-08-11T14:07:23;2.00;;;1.27;;
63050;SDS011;49136;47.416;19.402;2022-08-11T14:09:53;2.92;;;0.93;;
63050;SDS011;49136;47.416;19.402;2022-08-11T14:12:23;0.93;;;0.70;;
63050;SDS011;49136;47.416;19.402;2022-08-11T14:15:20;0.73;;;0.63;;
63050;SDS011;49136;47.416;19.402;2022-08-11T14:17:56;3.08;;;1.23;;
63050;SDS011;49136;47.416;19.402;2022-08-11T14:20:30;1.08;;;0.80;;
63050;SDS011;49136;47.416;19.402;2022-08-11T14:23:16;0.80;;;0.65;;
63050;SDS011;49136;47.416;19.402;2022-08-11T14:25:47;2.65;;;0.93;;
63050;SDS011;49136;47.416;19.402;2022-08-11T14:28:32;1.13;;;0.80;;
63050;SDS011;49136;47.416;19.402;2022-08-11T14:30:59;7.95;;;1.23;;
63050;SDS011;49136;47.416;19.402;2022-08-11T14:33:25;1.38;;;0.77;;
63050;SDS011;49136;47.416;19.402;2022-08-11T14:35:51;1.52;;;1.20;;
63050;SDS011;49136;47.416;19.402;2022-08-11T14:38:16;2.40;;;0.90;;
63050;SDS011;49136;47.416;19.402;2022-08-11T14:40:43;1.00;;;0.80;;
63050;SDS011;49136;47.416;19.402;2022-08-11T14:43:30;2.05;;;0.90;;
63050;SDS011;49136;47.416;19.402;2022-08-11T14:46:14;4.03;;;0.90;;
63050;SDS011;49136;47.416;19.402;2022-08-11T14:48:58;3.13;;;1.15;;
63050;SDS011;49136;47.416;19.402;2022-08-11T14:51:24;3.47;;;1.20;;
63050;SDS011;49136;47.416;19.402;2022-08-11T14:53:50;4.55;;;1.17;;
63050;SDS011;49136;47.416;19.402;2022-08-11T14:56:36;2.63;;;0.90;;
63050;SDS011;49136;47.416;19.402;2022-08-11T14:59:02;1.33;;;0.80;;
63050;SDS011;49136;47.416;19.402;2022-08-11T15:01:27;9.80;;;1.00;;
63050;SDS011;49136;47.416;19.402;2022-08-11T15:04:11;4.00;;;1.00;;
63050;SDS011;49136;47.416;19.402;2022-08-11T15:06:37;8.52;;;1.10;;
63050;SDS011;49136;47.416;19.402;2022-08-11T15:09:03;5.38;;;1.30;;
63050;SDS011;49136;47.416;19.402;2022-08-11T15:11:30;4.47;;;1.10;;
63050;SDS011;49136;47.416;19.402;2022-08-11T15:14:15;5.57;;;1.30;;
63050;SDS011;49136;47.416;19.402;2022-08-11T15:17:01;4.53;;;0.98;;
63050;SDS011;49136;47.416;19.402;2022-08-11T15:19:33;1.52;;;1.10;;
63050;SDS011;49136;47.416;19.402;2022-08-11T15:22:01;3.65;;;1.00;;
63050;SDS011;49136;47.416;19.402;2022-08-11T15:24:45;1.83;;;0.90;;
63050;SDS011;49136;47.416;19.402;2022-08-11T15:27:16;2.83;;;0.90;;
63050;SDS011;49136;47.416;19.402;2022-08-11T15:30:04;6.28;;;1.00;;
63050;SDS011;49136;47.416;19.402;2022-08-11T15:32:49;4.40;;;1.15;;
63050;SDS011;49136;47.416;19.402;2022-08-11T15:35:34;11.70;;;1.85;;
63050;SDS011;49136;47.416;19.402;2022-08-11T15:38:20;1.52;;;0.88;;
63050;SDS011;49136;47.416;19.402;2022-08-11T15:40:47;1.65;;;0.90;;
63050;SDS011;49136;47.416;19.402;2022-08-11T15:43:37;1.90;;;1.00;;
63050;SDS011;49136;47.416;19.402;2022-08-11T15:46:28;9.10;;;1.60;;
63050;SDS011;49136;47.416;19.402;2022-08-11T15:49:07;3.53;;;0.90;;
63050;SDS011;49136;47.416;19.402;2022-08-11T15:51:41;1.15;;;0.70;;
63050;SDS011;49136;47.416;19.402;2022-08-11T15:54:08;1.37;;;0.87;;
63050;SDS011;49136;47.416;19.402;2022-08-11T15:56:40;9.77;;;0.90;;
63050;SDS011;49136;47.416;19.402;2022-08-11T15:59:08;1.70;;;0.85;;
63050;SDS011;49136;47.416;19.402;2022-08-11T16:01:54;1.88;;;0.85;;
63050;SDS011;49136;47.416;19.402;2022-08-11T16:04:54;0.98;;;0.73;;
63050;SDS011;49136;47.416;19.402;2022-08-11T16:07:22;3.08;;;0.80;;
63050;SDS011;49136;47.416;19.402;2022-08-11T16:12:38;4.47;;;0.80;;
63050;SDS011;49136;47.416;19.402;2022-08-11T16:15:27;0.73;;;0.70;;
63050;SDS011;49136;47.416;19.402;2022-08-11T16:18:12;3.83;;;0.85;;
63050;SDS011;49136;47.416;19.402;2022-08-11T16:20:40;1.48;;;0.77;;
63050;SDS011;49136;47.416;19.402;2022-08-11T16:23:07;1.23;;;0.90;;
63050;SDS011;49136;47.416;19.402;2022-08-11T16:25:34;2.72;;;0.90;;
63050;SDS011;49136;47.416;19.402;2022-08-11T16:28:03;1.67;;;0.80;;
63050;SDS011;49136;47.416;19.402;2022-08-11T16:30:31;1.17;;;0.80;;
63050;SDS011;49136;47.416;19.402;2022-08-11T16:33:00;3.78;;;0.90;;
63050;SDS011;49136;47.416;19.402;2022-08-11T16:35:29;20.98;;;2.20;;
63050;SDS011;49136;47.416;19.402;2022-08-11T16:38:16;5.45;;;0.90;;
63050;SDS011;49136;47.416;19.402;2022-08-11T16:41:03;2.85;;;0.95;;
63050;SDS011;49136;47.416;19.402;2022-08-11T16:43:32;11.98;;;1.30;;
63050;SDS011;49136;47.416;19.402;2022-08-11T16:46:20;1.25;;;0.75;;
63050;SDS011;49136;47.416;19.402;2022-08-11T16:49:06;1.73;;;0.70;;
63050;SDS011;49136;47.416;19.402;2022-08-11T16:51:35;2.25;;;0.90;;
63050;SDS011;49136;47.416;19.402;2022-08-11T16:54:00;3.70;;;0.85;;
63050;SDS011;49136;47.416;19.402;2022-08-11T16:59:31;2.65;;;0.98;;
63050;SDS011;49136;47.416;19.402;2022-08-11T17:02:11;1.73;;;0.80;;
63050;SDS011;49136;47.416;19.402;2022-08-11T17:04:59;2.90;;;0.93;;
63050;SDS011;49136;47.416;19.402;2022-08-11T17:07:46;3.63;;;1.23;;
63050;SDS011;49136;47.416;19.402;2022-08-11T17:10:34;2.72;;;0.90;;
63050;SDS011;49136;47.416;19.402;2022-08-11T17:13:28;6.22;;;1.05;;
63050;SDS011;49136;47.416;19.402;2022-08-11T17:15:59;2.63;;;0.80;;
63050;SDS011;49136;47.416;19.402;2022-08-11T17:18:33;1.33;;;0.90;;
63050;SDS011;49136;47.416;19.402;2022-08-11T17:23:37;5.95;;;1.17;;
63050;SDS011;49136;47.416;19.402;2022-08-11T17:29:32;2.58;;;1.50;;
63050;SDS011;49136;47.416;19.402;2022-08-11T17:32:00;2.08;;;1.10;;
63050;SDS011;49136;47.416;19.402;2022-08-11T17:34:46;4.50;;;1.33;;
63050;SDS011;49136;47.416;19.402;2022-08-11T17:37:33;8.63;;;1.33;;
63050;SDS011;49136;47.416;19.402;2022-08-11T17:40:02;2.22;;;1.20;;
63050;SDS011;49136;47.416;19.402;2022-08-11T17:42:31;1.92;;;1.10;;
63050;SDS011;49136;47.416;19.402;2022-08-11T17:45:17;4.07;;;1.80;;
63050;SDS011;49136;47.416;19.402;2022-08-11T17:48:02;5.93;;;1.90;;
63050;SDS011;49136;47.416;19.402;2022-08-11T17:50:48;6.97;;;1.10;;
63050;SDS011;49136;47.416;19.402;2022-08-11T17:53:15;6.28;;;1.42;;
63050;SDS011;49136;47.416;19.402;2022-08-11T17:56:03;2.30;;;1.30;;
63050;SDS011;49136;47.416;19.402;2022-08-11T17:58:47;2.55;;;1.13;;
63050;SDS011;49136;47.416;19.402;2022-08-11T18:01:36;5.10;;;1.38;;
63050;SDS011;49136;47.416;19.402;2022-08-11T18:04:04;5.13;;;1.35;;
63050;SDS011;49136;47.416;19.402;2022-08-11T18:06:31;2.38;;;1.13;;
63050;SDS011;49136;47.416;19.402;2022-08-11T18:08:58;4.13;;;1.33;;
63050;SDS011;49136;47.416;19.402;2022-08-11T18:11:45;2.92;;;1.50;;
63050;SDS011;49136;47.416;19.402;2022-08-11T18:14:31;4.45;;;1.73;;
63050;SDS011;49136;47.416;19.402;2022-08-11T18:17:18;5.82;;;1.25;;
63050;SDS011;49136;47.416;19.402;2022-08-11T18:20:02;3.15;;;0.90;;
63050;SDS011;49136;47.416;19.402;2022-08-11T18:22:46;2.78;;;1.33;;
63050;SDS011;49136;47.416;19.402;2022-08-11T18:25:33;1.73;;;1.20;;
63050;SDS011;49136;47.416;19.402;2022-08-11T18:31:10;4.78;;;1.13;;
63050;SDS011;49136;47.416;19.402;2022-08-11T18:33:59;2.20;;;1.17;;
63050;SDS011;49136;47.416;19.402;2022-08-11T18:39:36;2.75;;;1.00;;
63050;SDS011;49136;47.416;19.402;2022-08-11T18:42:26;1.40;;;1.08;;
63050;SDS011;49136;47.416;19.402;2022-08-11T18:45:14;5.60;;;1.10;;
63050;SDS011;49136;47.416;19.402;2022-08-11T18:48:01;1.30;;;1.00;;
63050;SDS011;49136;47.416;19.402;2022-08-11T18:50:48;3.05;;;1.20;;
63050;SDS011;49136;47.416;19.402;2022-08-11T18:53:35;2.30;;;1.00;;
63050;SDS011;49136;47.416;19.402;2022-08-11T18:56:24;2.30;;;1.50;;
63050;SDS011;49136;47.416;19.402;2022-08-11T18:59:09;1.52;;;1.05;;
63050;SDS011;49136;47.416;19.402;2022-08-11T19:01:55;1.65;;;1.02;;
63050;SDS011;49136;47.416;19.402;2022-08-11T19:04:40;3.08;;;1.20;;
63050;SDS011;49136;47.416;19.402;2022-08-11T19:07:27;1.55;;;1.20;;
63050;SDS011;49136;47.416;19.402;2022-08-11T19:10:14;1.52;;;0.88;;
63050;SDS011;49136;47.416;19.402;2022-08-11T19:12:59;1.40;;;1.10;;
63050;SDS011;49136;47.416;19.402;2022-08-11T19:15:44;2.20;;;1.40;;
63050;SDS011;49136;47.416;19.402;2022-08-11T19:18:29;1.50;;;1.10;;
63050;SDS011;49136;47.416;19.402;2022-08-11T19:21:14;3.33;;;1.10;;
63050;SDS011;49136;47.416;19.402;2022-08-11T19:24:01;1.45;;;1.10;;
63050;SDS011;49136;47.416;19.402;2022-08-11T19:26:48;3.55;;;1.30;;
63050;SDS011;49136;47.416;19.402;2022-08-11T19:29:34;14.13;;;2.00;;
63050;SDS011;49136;47.416;19.402;2022-08-11T19:32:19;2.55;;;1.10;;
63050;SDS011;49136;47.416;19.402;2022-08-11T19:35:04;2.92;;;1.40;;